Aviation Digital Data Service (ADDS)

Output produced by METARs form (0050 UTC 25 July 2017)
found at http://aviationweather.gov/adds/metars/
 
KDUJ 242320Z 2500/2524 29008KT P6SM BKN035 
     FM250400 28006KT P6SM BKN030 
     FM251000 29005KT P6SM BKN008 
     FM251400 30005KT P6SM BKN020 
     FM251700 33005KT P6SM SCT035